• Join FlightAware (Why Join?)
  • Login
  • US Flag 
06:53PM EDT


 

Airport Tracker/Info


-or-


 

Live Flight TrackerFlight Track Log ✈ UAL407 ✈ 08-May-2013 ✈ KALB - KORD

Flight Track Log - Related Links

Times and Time Zones

All times are in EDT time to prevent confusion due to time zone crossing. See the UAL407 flight status page for this flight to view local times or setup timezone preferences in your user account.

Time Position Orientation Groundspeed Altitude Reporting Facility
EDT Latitude Longitude Course Direction KTS MPH feet Rate Location/Type
06:14PM 42.7256 -73.8108 282° West 124 143 1,500  Level Boston Center
06:16PM 42.7478 -73.8736 296° West 257 296 3,400 2,400 Climbing Boston Center
06:17PM 42.8067 -74.1865 284° West  Level FlightAware Approximate
06:17PM 42.8078 -73.9117 335° Northwest 268 308 6,800  Level Boston Center
06:18PM 42.8304 -74.3173 284° West  Level FlightAware Approximate
06:18PM 42.8739 -73.9500 337° Northwest 268 308 10,100  Level Boston Center
06:19PM 42.8526 -74.4486 283° West  Level FlightAware Approximate
06:19PM 42.9353 -74.0253 318° Northwest 262 302 13,100  Level Boston Center
06:20PM 42.8864 -74.5692 282° West  Level FlightAware Approximate
06:20PM 42.9756 -74.1258 299° West 309 356 15,200  Level Boston Center
06:21PM 43.0297 -74.2636 298° West 364 419 18,200 2,580 Climbing Boston Center
06:22PM 43.0800 -74.3844 300° West 383 441 20,400 1,680 Climbing Boston Center
06:23PM 43.1358 -74.5256 299° West 402 463 21,600 1,800 Climbing Boston Center
06:24PM 43.1767 -74.6836 290° West 422 486 24,000 2,100 Climbing Boston Center
06:25PM 43.2025 -74.8442 282° West 433 498 25,800 1,800 Climbing Boston Center
06:26PM 43.2092 -75.0097 273° West 438 504 27,600 1,920 Climbing Boston Center
06:27PM 43.2117 -75.1778 271° West 443 510 29,700 1,800 Climbing Boston Center
06:28PM 43.2092 -75.3631 269° West 443 510 31,300 1,500 Climbing Boston Center
06:29PM 43.2108 -75.5311 271° West 443 510 32,700 1,200 Climbing Boston Center
06:30PM 43.2114 -75.6650 270° West 443 510 33,700 600 Climbing Boston Center
06:31PM 43.2094 -75.8758 269° West 443 510 34,000 120 Climbing Boston Center
06:32PM 43.2078 -76.0639 269° West 468 539 34,000  Level Boston Center
06:33PM 43.1833 -76.3833 264° West 490 564 34,000  Level Toronto Center
06:34PM 43.1833 -76.5667 270° West 490 564 34,000  Level Toronto Center
06:35PM 43.1953 -76.7583 275° West 501 577 34,000  Level Cleveland Center
06:36PM 43.1931 -76.9467 269° West 501 577 34,000  Level Cleveland Center
06:37PM 43.1883 -77.1347 268° West 501 577 34,000  Level Cleveland Center
06:38PM 43.1856 -77.3258 269° West 501 577 34,000  Level Cleveland Center
06:39PM 43.1822 -77.5139 269° West 501 577 34,000  Level Cleveland Center
06:40PM 43.1767 -77.6964 268° West 496 571 34,000  Level Cleveland Center
06:41PM 43.1728 -77.8817 268° West 496 571 34,000  Level Cleveland Center
06:42PM 43.1683 -78.0611 268° West 490 564 34,000  Level Cleveland Center
06:43PM 43.1617 -78.2381 267° West 478 550 34,000  Level Cleveland Center
06:45PM 43.0806 -78.5736 252° West 461 531 34,000  Level Cleveland Center
06:46PM 43.0311 -78.7400 248° West 473 544 34,000  Level Cleveland Center
06:47PM 42.9836 -78.8947 247° West 479 551 34,000  Level Cleveland Center
06:48PM 42.9333 -79.1167 253° West 480 552 34,000  Level Toronto Center
06:49PM 42.9500 -79.2667 279° West 490 564 34,000  Level Toronto Center
06:50PM 42.9500 -79.4667 270° West 490 564 34,000  Level Toronto Center
06:51PM 42.9667 -79.6500 277° West 490 564 34,000  Level Toronto Center
06:52PM 42.9667 -79.8333 270° West 490 564 34,000  Level Toronto Center
06:53PM 42.9833 -80.0167 277° West 480 552 34,000  Level Toronto Center
06:54PM 42.9833 -80.2000 270° West 480 552 34,000 540 Level Toronto Center
06:55PM 43.0000 -80.3833 277° West 460 529 35,100 960 Climbing Toronto Center
06:56PM 43.0000 -80.5500 270° West 450 518 36,000 420 Climbing Toronto Center
06:57PM 43.0167 -80.7000 279° West 450 518 36,000  Level Toronto Center
06:58PM 43.0000 -80.8833 263° West 440 506 36,000  Level Toronto Center
06:59PM 43.0167 -81.0500 278° West 440 506 36,000  Level Toronto Center
07:00PM 43.0167 -81.2333 270° West 440 506 36,000  Level Toronto Center
07:01PM 43.0167 -81.3833 270° West 440 506 36,000  Level Toronto Center
07:02PM 43.0167 -81.5500 270° West 440 506 36,000  Level Toronto Center
07:03PM 43.0167 -81.7333 270° West 440 506 36,000  Level Toronto Center
07:04PM 43.0167 -81.8833 270° West 440 506 36,000  Level Toronto Center
07:05PM 43.0000 -82.0500 262° West 440 506 36,000  Level Toronto Center
07:06PM 43.0000 -82.2167 270° West 430 495 36,000  Level Toronto Center
07:07PM 43.0000 -82.3833 270° West 430 495 36,000  Level Toronto Center
07:08PM 43.0000 -82.5500 270° West 430 495 36,000  Level Toronto Center
07:09PM 43.0014 -82.6925 271° West 440 506 36,000 -240 Level Cleveland Center
07:10PM 42.9983 -82.8597 269° West 440 506 35,600 -720 Descending Cleveland Center
07:11PM 42.9928 -83.0300 268° West 440 506 34,600 -840 Descending Cleveland Center
07:12PM 42.9869 -83.2000 267° West 445 512 34,000 -360 Descending Cleveland Center
07:13PM 42.9789 -83.3672 266° West 445 512 33,900 -720 Descending Cleveland Center
07:14PM 42.9747 -83.5372 268° West 445 512 32,600 -960 Descending Cleveland Center
07:15PM 42.9658 -83.7100 266° West 450 518 32,000 -300 Descending Cleveland Center
07:16PM 42.9528 -83.8794 264° West 450 518 32,000  Level Cleveland Center
07:17PM 42.9375 -84.0517 263° West 455 524 32,000  Level Cleveland Center
07:18PM 42.9197 -84.2236 262° West 467 537 32,000  Level Cleveland Center
07:19PM 42.9039 -84.3844 262° West 456 525 32,000  Level Cleveland Center
07:20PM 42.8942 -84.4894 263° West 450 518 32,000  Level Chicago Center
07:21PM 42.8764 -84.6578 262° West 451 519 32,000  Level Chicago Center
07:22PM 42.8597 -84.8250 262° West 448 516 32,000  Level Chicago Center
07:23PM 42.8383 -85.0239 262° West 443 510 32,000 -300 Level Chicago Center
07:24PM 42.8203 -85.1903 262° West 443 510 31,500 -780 Descending Chicago Center
07:25PM 42.8022 -85.3581 262° West 447 514 30,500 -1,020 Descending Chicago Center
07:26PM 42.7825 -85.5256 261° West 448 516 29,500 -1,380 Descending Chicago Center
07:27PM 42.7519 -85.6886 256° West 444 511 27,700 -2,160 Descending Chicago Center
07:28PM 42.7228 -85.8525 256° West 442 509 25,000 -2,520 Descending Chicago Center
07:29PM 42.6939 -86.0086 256° West 428 493 22,500 -2,460 Descending Chicago Center
07:30PM 42.6617 -86.1894 256° West 411 473 20,000 -1,560 Descending Chicago Center
07:31PM 42.6328 -86.3381 255° West 407 468 19,300 -1,320 Descending Chicago Center
07:32PM 42.6056 -86.4814 256° West 395 455 17,300 -2,100 Descending Chicago Center
07:33PM 42.5789 -86.6186 255° West 379 436 15,000 -2,280 Descending Chicago Center
07:34PM 42.5547 -86.7517 256° West 367 422 12,600 -2,280 Descending Chicago Center
07:36PM 42.5192 -86.8775 249° West 359 413 10,400 -1,320 Descending Chicago Center
07:37PM 42.4881 -86.9906 250° West 332 382 9,900 -780 Descending Chicago Center
07:38PM 42.4536 -87.1092 249° West 286 329 8,900 -480 Descending Chicago Center
07:39PM 42.4267 -87.2097 250° West 283 326 9,000 -300 Climbing Chicago Center
07:40PM 42.3906 -87.3033 242° Southwest 285 328 8,400 -780 Descending Chicago Center
07:41PM 42.3472 -87.3853 234° Southwest 271 312 7,500 -720 Descending Chicago Center
07:42PM 42.2969 -87.4828 235° Southwest 269 310 7,000 -540 Descending Chicago Center
07:43PM 42.2539 -87.5650 235° Southwest 270 311 6,500 -1,020 Descending Chicago Center
07:44PM 42.2111 -87.6461 235° Southwest 270 311 5,000 -1,500 Descending Chicago Center
07:45PM 42.1603 -87.7144 225° Southwest 267 307 3,400 -1,560 Descending Chicago Center